Time;durP1;ratioP1;P1;durP2;ratioP2;P2;SDS_P1;SDS_P2;PMS_P1;PMS_P2;Temp;Humidity;BMP_temperature;BMP_pressure;BME280_temperature;BME280_humidity;BME280_pressure;Samples;Min_cycle;Max_cycle;Signal;HPM_P1;HPM_P2
2023/05/14 00:00:47;;;;;;;4.30;3.03;;;15.00;99.90;;;;;;4173624;28;20234;-77
2023/05/14 00:02:49;;;;;;;4.50;3.33;;;15.00;99.90;;;;;;4176289;28;20202;-78
2023/05/14 00:04:51;;;;;;;3.77;3.23;;;14.90;99.90;;;;;;4173844;28;20263;-78
2023/05/14 00:06:52;;;;;;;4.40;3.23;;;14.90;99.90;;;;;;4177857;28;20230;-78
2023/05/14 00:08:54;;;;;;;6.63;3.80;;;14.90;99.90;;;;;;4177495;28;20287;-78
2023/05/14 00:10:56;;;;;;;5.70;3.77;;;14.90;99.90;;;;;;4171762;28;20206;-78
2023/05/14 00:12:58;;;;;;;4.23;3.40;;;14.90;99.90;;;;;;4178093;28;20225;-78
2023/05/14 00:15:00;;;;;;;4.83;3.43;;;14.90;99.90;;;;;;4170515;28;20215;-77
2023/05/14 00:17:05;;;;;;;4.50;3.53;;;14.90;99.90;;;;;;4170736;28;20232;-77
2023/05/14 00:19:07;;;;;;;4.50;3.33;;;14.80;99.90;;;;;;4170981;28;20205;-77
2023/05/14 00:21:09;;;;;;;4.67;3.47;;;14.80;99.90;;;;;;4167172;28;20206;-77
2023/05/14 00:23:11;;;;;;;4.87;3.40;;;14.80;99.90;;;;;;4169778;28;20210;-77
2023/05/14 00:25:13;;;;;;;4.63;3.60;;;14.80;99.90;;;;;;4171074;28;20212;-77
2023/05/14 00:27:15;;;;;;;4.73;3.40;;;14.80;99.90;;;;;;4168639;28;20233;-77
2023/05/14 00:29:17;;;;;;;6.27;3.30;;;14.80;99.90;;;;;;4167342;28;20600;-78
2023/05/14 00:31:19;;;;;;;4.43;3.03;;;14.80;99.90;;;;;;4167873;28;20659;-78
2023/05/14 00:33:22;;;;;;;4.20;3.50;;;14.70;99.90;;;;;;4170570;28;20765;-78
2023/05/14 00:35:24;;;;;;;4.10;3.40;;;14.70;99.90;;;;;;4177649;28;20301;-78
2023/05/14 00:37:26;;;;;;;4.50;3.03;;;14.70;99.90;;;;;;4168686;28;20318;-78
2023/05/14 00:39:28;;;;;;;5.13;3.63;;;14.70;99.90;;;;;;4171762;28;20212;-78
2023/05/14 00:41:30;;;;;;;3.77;3.07;;;14.70;99.90;;;;;;4166762;28;20220;-78
2023/05/14 00:43:32;;;;;;;4.10;2.93;;;14.70;99.90;;;;;;4168856;28;20233;-81
2023/05/14 00:45:34;;;;;;;3.83;3.33;;;14.60;99.90;;;;;;4172927;28;20217;-78
2023/05/14 00:47:39;;;;;;;4.90;2.90;;;14.60;99.90;;;;;;4170633;28;20268;-75
2023/05/14 00:49:43;;;;;;;4.43;3.60;;;14.60;99.90;;;;;;4166281;28;20321;-73
2023/05/14 00:51:46;;;;;;;4.03;3.30;;;14.60;99.90;;;;;;4166062;28;20258;-73
2023/05/14 00:53:49;;;;;;;4.30;3.20;;;14.60;99.90;;;;;;4168981;28;20698;-79
2023/05/14 00:55:51;;;;;;;5.10;3.90;;;14.60;99.90;;;;;;4165748;28;20761;-74
2023/05/14 00:57:54;;;;;;;6.70;4.30;;;14.60;99.90;;;;;;4172692;28;20830;-75
2023/05/14 00:59:56;;;;;;;4.90;4.07;;;14.60;99.90;;;;;;4167833;28;20269;-76
2023/05/14 01:01:58;;;;;;;6.53;4.77;;;14.60;99.90;;;;;;4170130;28;20298;-74
2023/05/14 01:04:01;;;;;;;6.23;3.80;;;14.50;99.90;;;;;;4165312;28;20224;-76
2023/05/14 01:06:12;;;;;;;5.37;3.73;;;14.50;99.90;;;;;;4170800;28;20225;-73
2023/05/14 01:08:24;;;;;;;5.27;3.63;;;14.50;99.90;;;;;;4165467;28;20308;-75
2023/05/14 01:10:32;;;;;;;4.67;3.50;;;14.50;99.90;;;;;;4172081;28;20278;-75
2023/05/14 01:12:40;;;;;;;5.23;3.83;;;14.50;99.90;;;;;;4169445;28;20312;-75
2023/05/14 01:14:51;;;;;;;4.40;3.20;;;14.40;99.90;;;;;;4170068;28;20267;-75
2023/05/14 01:16:56;;;;;;;4.80;3.70;;;14.40;99.90;;;;;;4172401;28;20229;-75
2023/05/14 01:18:59;;;;;;;4.53;3.50;;;14.40;99.90;;;;;;4173867;28;20236;-75
2023/05/14 01:21:02;;;;;;;3.67;2.90;;;14.40;99.90;;;;;;4169146;28;20775;-76
2023/05/14 01:23:05;;;;;;;4.80;3.43;;;14.40;99.90;;;;;;4168450;28;20245;-77
2023/05/14 01:25:08;;;;;;;3.90;3.00;;;14.30;99.90;;;;;;4171353;28;21577;-75
2023/05/14 01:27:18;;;;;;;4.20;3.20;;;14.30;99.90;;;;;;4174016;28;21066;-75
2023/05/14 01:29:23;;;;;;;5.30;3.40;;;14.30;99.90;;;;;;4169473;28;20235;-75
2023/05/14 01:31:28;;;;;;;4.33;3.27;;;14.30;99.90;;;;;;4175638;28;20208;-74
2023/05/14 01:33:32;;;;;;;4.80;3.60;;;14.30;99.90;;;;;;4175810;28;20233;-76
2023/05/14 01:35:34;;;;;;;4.07;3.27;;;14.20;99.90;;;;;;4175778;28;20243;-76
2023/05/14 01:37:37;;;;;;;3.57;3.10;;;14.20;99.90;;;;;;4169878;28;20302;-76
2023/05/14 01:39:42;;;;;;;3.40;3.10;;;14.20;99.90;;;;;;4172875;28;20215;-76
2023/05/14 01:41:45;;;;;;;4.43;3.23;;;14.20;99.90;;;;;;4176586;28;20306;-76
2023/05/14 01:43:48;;;;;;;4.23;3.50;;;14.20;99.90;;;;;;4171455;28;20748;-76
2023/05/14 01:45:50;;;;;;;4.63;3.50;;;14.20;99.90;;;;;;4173108;28;20701;-75
2023/05/14 01:47:52;;;;;;;4.73;3.30;;;14.10;99.90;;;;;;4177150;28;20314;-77
2023/05/14 01:49:54;;;;;;;5.30;3.63;;;14.10;99.90;;;;;;4172630;28;20227;-76
2023/05/14 01:51:56;;;;;;;5.97;3.50;;;14.10;99.90;;;;;;4175132;28;20206;-75
2023/05/14 01:53:58;;;;;;;4.40;3.70;;;14.10;99.90;;;;;;4173943;28;20303;-76
2023/05/14 01:56:01;;;;;;;3.83;3.33;;;14.10;99.90;;;;;;4168217;28;20640;-76
2023/05/14 01:58:03;;;;;;;3.80;3.20;;;14.00;99.90;;;;;;4172599;28;20295;-76
2023/05/14 02:00:06;;;;;;;4.33;3.50;;;14.00;99.90;;;;;;4170685;28;20679;-76
2023/05/14 02:02:08;;;;;;;3.53;3.10;;;14.00;99.90;;;;;;4168856;28;20643;-76
2023/05/14 02:04:10;;;;;;;5.27;3.73;;;14.00;99.90;;;;;;4170384;28;20305;-76
2023/05/14 02:06:12;;;;;;;4.63;3.23;;;14.00;99.90;;;;;;4174692;28;20228;-76
2023/05/14 02:08:14;;;;;;;4.57;3.47;;;13.90;99.90;;;;;;4172395;28;20264;-76
2023/05/14 02:10:15;;;;;;;6.00;3.63;;;13.90;99.90;;;;;;4169812;28;20251;-76
2023/05/14 02:12:19;;;;;;;5.93;3.93;;;13.90;99.90;;;;;;4173438;28;20241;-76
2023/05/14 02:14:21;;;;;;;5.33;3.87;;;13.90;99.90;;;;;;4174935;28;20230;-76
2023/05/14 02:16:22;;;;;;;4.80;3.60;;;13.90;99.90;;;;;;4171450;28;20224;-76
2023/05/14 02:18:24;;;;;;;4.90;3.80;;;13.90;99.90;;;;;;4169881;28;20217;-75
2023/05/14 02:20:26;;;;;;;4.00;3.10;;;13.90;99.90;;;;;;4171162;28;20249;-76
2023/05/14 02:22:28;;;;;;;5.07;3.73;;;13.90;99.90;;;;;;4178688;28;20203;-75
2023/05/14 02:24:30;;;;;;;5.93;4.00;;;13.90;99.90;;;;;;4169343;28;20854;-75
2023/05/14 02:26:32;;;;;;;4.07;3.43;;;13.80;99.90;;;;;;4177392;28;20778;-76
2023/05/14 02:28:35;;;;;;;5.37;3.80;;;13.80;99.90;;;;;;4171691;28;20687;-76
2023/05/14 02:30:37;;;;;;;5.40;3.57;;;13.80;99.90;;;;;;4176611;28;20231;-77
2023/05/14 02:32:39;;;;;;;4.60;3.53;;;13.80;99.90;;;;;;4174542;28;20213;-76
2023/05/14 02:34:41;;;;;;;4.63;3.50;;;13.80;99.90;;;;;;4173932;28;20257;-76
2023/05/14 02:36:43;;;;;;;4.43;3.53;;;13.80;99.90;;;;;;4174227;28;20225;-76
2023/05/14 02:38:45;;;;;;;5.87;3.63;;;13.80;99.90;;;;;;4174613;28;20207;-77
2023/05/14 02:40:47;;;;;;;5.13;3.80;;;13.80;99.90;;;;;;4172113;28;20246;-75
2023/05/14 02:42:49;;;;;;;4.93;3.80;;;13.80;99.90;;;;;;4170396;28;20677;-77
2023/05/14 02:44:52;;;;;;;5.03;3.80;;;13.70;99.90;;;;;;4171390;28;20859;-76
2023/05/14 02:46:57;;;;;;;4.70;3.80;;;13.80;99.90;;;;;;4169601;28;20743;-76
2023/05/14 02:48:59;;;;;;;4.80;3.57;;;13.80;99.90;;;;;;4172151;28;20205;-76
2023/05/14 02:51:01;;;;;;;4.60;3.67;;;13.80;99.90;;;;;;4173727;28;20233;-76
2023/05/14 02:53:03;;;;;;;5.20;3.60;;;13.70;99.90;;;;;;4170953;28;20219;-76
2023/05/14 02:55:06;;;;;;;4.90;3.80;;;13.70;99.90;;;;;;4172085;28;20208;-76
2023/05/14 02:57:08;;;;;;;5.10;3.87;;;13.70;99.90;;;;;;4168921;28;20223;-76
2023/05/14 02:59:10;;;;;;;6.10;4.07;;;13.60;99.90;;;;;;4174046;28;20221;-76
2023/05/14 03:01:13;;;;;;;5.30;4.03;;;13.70;99.90;;;;;;4168453;28;20778;-76
2023/05/14 03:03:15;;;;;;;4.30;3.57;;;13.60;99.90;;;;;;4172740;28;20222;-76
2023/05/14 03:05:17;;;;;;;5.73;4.23;;;13.60;99.90;;;;;;4172020;28;20214;-77
2023/05/14 03:07:19;;;;;;;5.23;3.77;;;13.60;99.90;;;;;;4168042;28;20223;-76
2023/05/14 03:09:21;;;;;;;5.57;3.87;;;13.60;99.90;;;;;;4172078;28;20660;-76
2023/05/14 03:11:23;;;;;;;5.47;3.60;;;13.60;99.90;;;;;;4171617;28;21032;-77
2023/05/14 03:13:25;;;;;;;4.33;3.57;;;13.50;99.90;;;;;;4168187;28;20528;-76
2023/05/14 03:15:28;;;;;;;4.70;3.70;;;13.50;99.90;;;;;;4167727;28;20272;-77
2023/05/14 03:17:32;;;;;;;5.10;3.83;;;13.50;99.90;;;;;;4175586;28;20220;-76
2023/05/14 03:19:34;;;;;;;6.63;4.10;;;13.50;99.90;;;;;;4170458;28;20256;-76
2023/05/14 03:21:36;;;;;;;6.73;3.97;;;13.50;99.90;;;;;;4173874;28;20256;-77
2023/05/14 03:23:38;;;;;;;4.87;3.67;;;13.50;99.90;;;;;;4170876;28;20749;-77
2023/05/14 03:25:39;;;;;;;5.40;4.17;;;13.50;99.90;;;;;;4174835;28;20225;-76
2023/05/14 03:27:41;;;;;;;5.73;4.27;;;13.50;99.90;;;;;;4172042;28;21719;-77
2023/05/14 03:29:43;;;;;;;6.03;4.20;;;13.40;99.90;;;;;;4170802;28;20581;-77
2023/05/14 03:31:45;;;;;;;5.23;4.27;;;13.40;99.90;;;;;;4175852;28;20269;-77
2023/05/14 03:33:49;;;;;;;8.57;4.40;;;13.40;99.90;;;;;;4172194;28;20875;-77
2023/05/14 03:35:51;;;;;;;6.00;4.30;;;13.40;99.90;;;;;;4179728;28;20293;-78
2023/05/14 03:37:53;;;;;;;6.10;4.03;;;13.40;99.90;;;;;;4173899;28;20198;-78
2023/05/14 03:39:55;;;;;;;5.77;4.00;;;13.40;99.90;;;;;;4170732;28;20268;-77
2023/05/14 03:41:57;;;;;;;5.87;4.13;;;13.40;99.90;;;;;;4170831;28;20207;-77
2023/05/14 03:43:59;;;;;;;4.67;3.77;;;13.40;99.90;;;;;;4171669;28;20207;-78
2023/05/14 03:46:01;;;;;;;4.97;4.03;;;13.40;99.90;;;;;;4170052;28;20231;-78
2023/05/14 03:48:04;;;;;;;5.13;4.07;;;13.30;99.90;;;;;;4172436;28;20229;-76
2023/05/14 03:50:08;;;;;;;5.30;4.10;;;13.30;99.90;;;;;;4168981;28;20601;-77
2023/05/14 03:52:10;;;;;;;5.93;4.13;;;13.30;99.90;;;;;;4169268;28;20208;-76
2023/05/14 03:54:12;;;;;;;6.97;4.33;;;13.30;99.90;;;;;;4171079;28;20261;-76
2023/05/14 03:56:14;;;;;;;6.53;4.13;;;13.30;99.90;;;;;;4169676;28;20222;-76
2023/05/14 03:58:16;;;;;;;5.60;4.00;;;13.20;99.90;;;;;;4177272;28;20286;-76
2023/05/14 04:00:19;;;;;;;5.37;3.83;;;13.20;99.90;;;;;;4170272;28;20207;-77
2023/05/14 04:02:24;;;;;;;5.03;3.80;;;13.20;99.90;;;;;;4177491;28;20210;-76
2023/05/14 04:04:26;;;;;;;5.67;4.30;;;13.20;99.90;;;;;;4168279;28;20236;-76
2023/05/14 04:06:29;;;;;;;5.23;3.73;;;13.20;99.90;;;;;;4170911;28;20222;-76
2023/05/14 04:08:31;;;;;;;5.70;4.10;;;13.10;99.90;;;;;;4167974;28;20202;-75
2023/05/14 04:10:33;;;;;;;6.07;3.90;;;13.20;99.90;;;;;;4171564;28;20228;-76
2023/05/14 04:12:35;;;;;;;5.23;3.80;;;13.20;99.90;;;;;;4170730;28;20210;-75
2023/05/14 04:14:37;;;;;;;5.20;4.07;;;13.20;99.90;;;;;;4173310;28;20215;-76
2023/05/14 04:16:39;;;;;;;5.90;4.10;;;13.20;99.90;;;;;;4166964;28;20280;-75
2023/05/14 04:18:41;;;;;;;4.60;3.90;;;13.20;99.90;;;;;;4168661;28;20207;-75
2023/05/14 04:20:43;;;;;;;4.67;3.63;;;13.20;99.90;;;;;;4175402;28;20589;-76
2023/05/14 04:22:47;;;;;;;4.73;3.70;;;13.30;99.90;;;;;;4176766;28;20245;-76
2023/05/14 04:24:49;;;;;;;5.07;3.90;;;13.30;99.90;;;;;;4172102;28;20211;-75
2023/05/14 04:26:51;;;;;;;5.97;4.00;;;13.30;99.90;;;;;;4167372;28;20274;-76
2023/05/14 04:28:53;;;;;;;6.30;3.80;;;13.30;99.90;;;;;;4170393;28;20215;-76
2023/05/14 04:30:55;;;;;;;5.10;3.80;;;13.30;99.90;;;;;;4173125;28;21033;-76
2023/05/14 04:32:57;;;;;;;6.57;3.87;;;13.40;99.90;;;;;;4170820;28;20215;-76
2023/05/14 04:34:59;;;;;;;5.80;4.00;;;13.40;99.90;;;;;;4172572;28;20215;-78
2023/05/14 04:37:02;;;;;;;4.90;3.60;;;13.30;99.90;;;;;;4172472;28;20229;-77
2023/05/14 04:39:06;;;;;;;6.43;3.97;;;13.40;99.90;;;;;;4174314;28;20234;-76
2023/05/14 04:41:07;;;;;;;4.73;3.50;;;13.40;99.90;;;;;;4166796;28;20208;-76
2023/05/14 04:43:10;;;;;;;4.87;3.57;;;13.40;99.90;;;;;;4169473;28;20199;-75
2023/05/14 04:45:13;;;;;;;3.83;3.43;;;13.40;99.90;;;;;;4169215;28;20676;-76
2023/05/14 04:47:15;;;;;;;5.50;3.80;;;13.40;99.90;;;;;;4171253;28;20235;-75
2023/05/14 04:49:17;;;;;;;5.50;3.90;;;13.40;99.90;;;;;;4166615;28;20211;-75
2023/05/14 04:51:19;;;;;;;5.57;3.87;;;13.50;99.90;;;;;;4166098;28;20642;-76
2023/05/14 04:53:23;;;;;;;5.10;3.53;;;13.50;99.90;;;;;;4167628;28;20653;-76
2023/05/14 04:55:26;;;;;;;5.03;3.80;;;13.50;99.90;;;;;;4170088;28;20210;-77
2023/05/14 04:57:28;;;;;;;5.20;3.50;;;13.50;99.90;;;;;;4168412;28;20284;-76
2023/05/14 04:59:30;;;;;;;5.67;4.03;;;13.50;99.90;;;;;;4168378;28;20208;-77
2023/05/14 05:01:32;;;;;;;6.17;4.00;;;13.60;99.90;;;;;;4171743;28;20249;-76
2023/05/14 05:03:34;;;;;;;6.90;3.90;;;13.60;99.90;;;;;;4200977;28;20310;-76
2023/05/14 05:05:36;;;;;;;6.00;4.23;;;13.60;99.90;;;;;;4167200;28;20206;-76
2023/05/14 05:07:38;;;;;;;5.00;3.87;;;13.70;99.90;;;;;;4167142;28;20232;-76
2023/05/14 05:09:45;;;;;;;6.43;3.80;;;13.70;99.90;;;;;;4164353;28;20210;-77
2023/05/14 05:11:51;;;;;;;5.33;4.10;;;13.70;99.90;;;;;;4170069;28;20321;-76
2023/05/14 05:13:53;;;;;;;4.53;3.50;;;13.80;99.90;;;;;;4174778;28;20248;-76
2023/05/14 05:15:55;;;;;;;5.20;3.90;;;13.80;99.90;;;;;;4176678;28;20216;-76
2023/05/14 05:17:57;;;;;;;5.23;3.63;;;13.80;99.90;;;;;;4169262;28;20211;-77
2023/05/14 05:19:59;;;;;;;7.90;4.47;;;13.80;99.90;;;;;;4178293;28;20713;-77
2023/05/14 05:22:01;;;;;;;6.87;4.83;;;13.90;99.90;;;;;;4177954;28;20203;-77
2023/05/14 05:24:04;;;;;;;7.03;4.80;;;13.90;99.90;;;;;;4171666;28;20201;-77
2023/05/14 05:26:06;;;;;;;5.70;4.13;;;13.90;99.90;;;;;;4169944;28;20233;-76
2023/05/14 05:28:09;;;;;;;6.80;4.43;;;14.00;99.90;;;;;;4169178;28;20262;-77
2023/05/14 05:30:12;;;;;;;6.93;4.60;;;14.00;99.90;;;;;;4173218;28;20253;-77
2023/05/14 05:32:14;;;;;;;5.80;4.47;;;14.00;99.90;;;;;;4175342;28;20287;-76
2023/05/14 05:34:16;;;;;;;5.40;3.77;;;14.00;99.90;;;;;;4177054;28;20298;-76
2023/05/14 05:36:18;;;;;;;7.97;4.37;;;14.00;99.90;;;;;;4169726;28;20645;-76
2023/05/14 05:38:20;;;;;;;5.80;4.20;;;14.00;99.90;;;;;;4170843;28;20205;-76
2023/05/14 05:40:22;;;;;;;6.33;4.33;;;14.00;99.90;;;;;;4177849;28;20899;-76
2023/05/14 05:42:24;;;;;;;5.70;3.93;;;14.00;99.90;;;;;;4172021;28;20213;-76
2023/05/14 05:44:34;;;;;;;4.47;3.63;;;14.00;99.90;;;;;;4173387;28;20204;-77
2023/05/14 05:46:37;;;;;;;6.03;4.00;;;14.00;99.90;;;;;;4171174;28;20232;-76
2023/05/14 05:48:39;;;;;;;8.23;4.53;;;14.00;99.90;;;;;;4171842;28;20239;-77
2023/05/14 05:50:43;;;;;;;6.23;4.23;;;14.00;99.90;;;;;;4172242;28;20701;-77
2023/05/14 05:52:45;;;;;;;4.80;3.80;;;13.90;99.90;;;;;;4171009;28;20219;-77
2023/05/14 05:54:47;;;;;;;5.33;4.17;;;13.90;99.90;;;;;;4171418;28;20264;-77
2023/05/14 05:56:49;;;;;;;6.70;3.80;;;13.90;99.90;;;;;;4175745;28;20228;-77
2023/05/14 05:58:51;;;;;;;5.10;3.80;;;13.90;99.90;;;;;;4174849;28;20729;-76
2023/05/14 06:00:56;;;;;;;8.00;3.90;;;13.90;99.90;;;;;;4173354;28;20209;-77
2023/05/14 06:02:58;;;;;;;5.07;3.83;;;13.90;99.90;;;;;;4175461;28;20213;-77
2023/05/14 06:05:00;;;;;;;6.20;4.10;;;13.90;99.90;;;;;;4167678;28;20238;-76
2023/05/14 06:07:07;;;;;;;6.53;4.10;;;13.90;99.90;;;;;;4172881;28;20575;-76
2023/05/14 06:09:09;;;;;;;6.07;4.20;;;13.90;99.90;;;;;;4172904;28;20248;-76
2023/05/14 06:11:11;;;;;;;6.90;4.00;;;14.00;99.90;;;;;;4170602;28;20228;-79
2023/05/14 06:13:13;;;;;;;5.70;4.07;;;14.00;99.90;;;;;;4171593;28;20662;-76
2023/05/14 06:15:15;;;;;;;6.23;4.40;;;14.00;99.90;;;;;;4169741;28;20254;-77
2023/05/14 06:17:18;;;;;;;6.40;4.20;;;14.00;99.90;;;;;;4170756;28;20231;-77
2023/05/14 06:19:20;;;;;;;8.63;5.47;;;14.00;99.90;;;;;;4171594;28;20258;-77
2023/05/14 06:21:22;;;;;;;7.63;5.13;;;14.00;99.90;;;;;;4169770;28;20212;-77
2023/05/14 06:23:23;;;;;;;9.60;5.10;;;14.00;99.90;;;;;;4170633;28;20212;-79
2023/05/14 06:25:25;;;;;;;8.67;5.17;;;14.00;99.90;;;;;;4167537;28;20771;-81
2023/05/14 06:27:28;;;;;;;6.77;4.60;;;14.10;99.90;;;;;;4168363;28;20231;-75
2023/05/14 06:29:30;;;;;;;6.50;4.50;;;14.10;99.90;;;;;;4173626;28;20678;-76
2023/05/14 06:31:32;;;;;;;6.17;4.57;;;14.10;99.90;;;;;;4173130;28;20219;-75
2023/05/14 06:33:36;;;;;;;7.33;4.83;;;14.20;99.90;;;;;;4169143;28;20222;-75
2023/05/14 06:35:38;;;;;;;6.70;4.00;;;14.20;99.90;;;;;;4177507;28;20197;-76
2023/05/14 06:37:40;;;;;;;6.80;5.10;;;14.20;99.90;;;;;;4173499;28;20226;-76
2023/05/14 06:39:47;;;;;;;6.87;4.57;;;14.30;99.90;;;;;;4171468;28;20212;-75
2023/05/14 06:41:48;;;;;;;5.80;4.43;;;14.30;99.90;;;;;;4173607;28;20666;-77
2023/05/14 06:43:50;;;;;;;4.90;4.07;;;14.70;99.90;;;;;;4171165;28;20588;-77
2023/05/14 06:45:53;;;;;;;5.37;4.43;;;14.30;99.90;;;;;;4173637;28;20288;-76
2023/05/14 06:47:55;;;;;;;5.80;4.13;;;14.30;99.90;;;;;;4172878;28;20217;-76
2023/05/14 06:50:00;;;;;;;8.70;4.60;;;14.40;99.90;;;;;;4172960;28;20266;-76
2023/05/14 06:52:02;;;;;;;6.87;4.70;;;14.40;99.90;;;;;;4172258;28;20218;-78
2023/05/14 06:54:04;;;;;;;6.87;4.40;;;14.50;99.90;;;;;;4174495;28;20212;-77
2023/05/14 06:56:07;;;;;;;6.43;4.00;;;14.50;99.90;;;;;;4172800;28;20241;-76
2023/05/14 06:58:09;;;;;;;5.93;4.17;;;14.50;99.90;;;;;;4171479;28;20221;-75
2023/05/14 07:00:13;;;;;;;6.03;3.80;;;14.50;99.90;;;;;;4170375;28;20212;-76
2023/05/14 07:02:15;;;;;;;7.63;4.27;;;14.50;99.90;;;;;;4174379;28;20284;-76
2023/05/14 07:04:17;;;;;;;6.33;4.13;;;14.60;99.90;;;;;;4176293;28;20246;-77
2023/05/14 07:06:20;;;;;;;5.93;4.30;;;14.60;99.90;;;;;;4169300;28;20241;-76
2023/05/14 07:08:22;;;;;;;6.33;4.43;;;14.60;99.90;;;;;;4175574;28;20898;-76
2023/05/14 07:10:25;;;;;;;5.97;4.50;;;14.70;99.90;;;;;;4170812;28;20218;-76
2023/05/14 07:12:27;;;;;;;7.73;4.87;;;14.70;99.90;;;;;;4169972;28;20226;-77
2023/05/14 07:14:29;;;;;;;7.00;4.57;;;14.80;99.90;;;;;;4174965;28;20667;-77
2023/05/14 07:16:31;;;;;;;6.93;5.27;;;14.80;99.90;;;;;;4177060;28;20283;-79
2023/05/14 07:18:33;;;;;;;6.87;4.60;;;14.80;99.90;;;;;;4175630;28;20205;-76
2023/05/14 07:20:35;;;;;;;7.73;4.70;;;14.80;99.90;;;;;;4167898;28;20214;-76
2023/05/14 07:22:38;;;;;;;6.77;4.70;;;14.90;99.90;;;;;;4171995;28;20209;-77
2023/05/14 07:24:40;;;;;;;5.70;4.10;;;14.90;99.90;;;;;;4172761;28;20667;-77
2023/05/14 07:26:42;;;;;;;5.77;4.60;;;15.00;99.90;;;;;;4171254;28;20298;-77
2023/05/14 07:28:44;;;;;;;6.97;4.33;;;15.00;99.90;;;;;;4173697;28;20217;-75
2023/05/14 07:30:46;;;;;;;4.97;4.10;;;15.10;99.90;;;;;;4178563;28;20310;-76
2023/05/14 07:32:48;;;;;;;5.07;3.90;;;15.10;99.90;;;;;;4169244;28;20295;-75
2023/05/14 07:34:50;;;;;;;5.60;3.87;;;15.10;99.90;;;;;;4171530;28;20222;-77
2023/05/14 07:36:52;;;;;;;4.93;3.87;;;15.20;99.90;;;;;;4169279;28;20223;-75
2023/05/14 07:38:55;;;;;;;5.57;3.70;;;15.20;99.90;;;;;;4174434;28;20214;-75
2023/05/14 07:40:57;;;;;;;6.37;3.60;;;15.30;99.90;;;;;;4172625;28;20219;-77
2023/05/14 07:42:59;;;;;;;4.80;3.50;;;15.30;99.90;;;;;;4172956;28;20197;-75
2023/05/14 07:45:01;;;;;;;5.30;3.83;;;15.30;99.90;;;;;;4175714;28;20573;-75
2023/05/14 07:47:05;;;;;;;5.73;3.57;;;15.40;99.90;;;;;;4172641;28;20230;-75
2023/05/14 07:49:07;;;;;;;5.20;3.67;;;15.40;99.90;;;;;;4167168;28;20645;-74
2023/05/14 07:51:10;;;;;;;5.50;3.30;;;15.40;99.90;;;;;;4171100;28;20237;-75
2023/05/14 07:53:12;;;;;;;4.63;3.27;;;15.50;99.90;;;;;;4174561;28;20581;-77
2023/05/14 07:55:16;;;;;;;4.57;3.17;;;15.50;99.90;;;;;;4176578;28;20297;-78
2023/05/14 07:57:18;;;;;;;5.40;3.30;;;15.60;99.90;;;;;;4170910;28;20234;-75
2023/05/14 07:59:20;;;;;;;7.03;3.70;;;15.60;99.90;;;;;;4176657;28;20214;-76
2023/05/14 08:01:22;;;;;;;6.60;3.43;;;15.60;99.90;;;;;;4174002;28;20265;-76
2023/05/14 08:03:24;;;;;;;5.87;3.30;;;15.70;99.90;;;;;;4174823;28;20569;-76
2023/05/14 08:05:26;;;;;;;4.57;3.10;;;15.80;99.90;;;;;;4174558;28;20889;-75
2023/05/14 08:07:28;;;;;;;5.63;3.40;;;15.80;99.90;;;;;;4173138;28;20742;-75
2023/05/14 08:09:30;;;;;;;7.40;3.37;;;15.80;99.90;;;;;;4171413;28;20206;-76
2023/05/14 08:11:34;;;;;;;5.17;3.80;;;15.90;99.90;;;;;;4167043;28;20207;-75
2023/05/14 08:13:36;;;;;;;5.47;3.50;;;15.90;99.90;;;;;;4170158;28;20211;-75
2023/05/14 08:15:38;;;;;;;4.87;3.63;;;16.00;99.90;;;;;;4171904;28;20210;-76
2023/05/14 08:17:40;;;;;;;5.43;3.70;;;16.00;99.90;;;;;;4172871;28;20226;-77
2023/05/14 08:19:42;;;;;;;6.67;4.10;;;16.10;99.90;;;;;;4168912;28;20211;-77
2023/05/14 08:21:44;;;;;;;6.80;4.17;;;16.20;99.90;;;;;;4168432;28;20665;-75
2023/05/14 08:23:46;;;;;;;5.53;4.13;;;16.20;99.90;;;;;;4172561;28;20627;-77
2023/05/14 08:25:47;;;;;;;4.67;3.63;;;16.30;99.90;;;;;;4171168;28;20214;-76
2023/05/14 08:27:52;;;;;;;4.80;3.77;;;16.30;99.90;;;;;;4170732;28;20264;-76
2023/05/14 08:29:54;;;;;;;5.57;3.63;;;16.40;99.90;;;;;;4173593;28;20234;-75
2023/05/14 08:31:57;;;;;;;4.43;3.57;;;16.40;99.90;;;;;;4169757;28;20226;-77
2023/05/14 08:33:59;;;;;;;4.87;3.80;;;16.50;99.90;;;;;;4172599;28;20589;-75
2023/05/14 08:36:00;;;;;;;6.33;3.90;;;16.40;99.90;;;;;;4171415;28;20628;-77
2023/05/14 08:38:03;;;;;;;6.97;4.10;;;16.60;99.90;;;;;;4169889;28;20204;-76
2023/05/14 08:40:07;;;;;;;5.50;3.97;;;16.70;99.90;;;;;;4173803;28;20572;-77
2023/05/14 08:42:12;;;;;;;5.63;3.80;;;16.80;99.90;;;;;;4173339;28;20204;-74
2023/05/14 08:44:20;;;;;;;5.10;3.70;;;16.90;99.90;;;;;;4172387;28;20657;-76
2023/05/14 08:46:24;;;;;;;5.03;4.00;;;17.10;99.90;;;;;;4180898;28;20637;-75
2023/05/14 08:48:28;;;;;;;4.43;3.60;;;17.20;99.90;;;;;;4169389;28;20209;-76
2023/05/14 08:50:31;;;;;;;5.83;3.50;;;17.40;99.90;;;;;;4174289;28;20225;-74
2023/05/14 08:52:34;;;;;;;4.90;3.50;;;17.60;99.90;;;;;;4175517;28;20276;-73
2023/05/14 08:54:36;;;;;;;5.23;3.93;;;17.70;99.90;;;;;;4172221;28;20621;-74
2023/05/14 08:56:40;;;;;;;4.60;3.50;;;17.90;99.90;;;;;;4171982;28;20233;-74
2023/05/14 08:58:42;;;;;;;4.80;3.57;;;18.00;99.90;;;;;;4171441;28;20217;-72
2023/05/14 09:00:45;;;;;;;4.07;3.30;;;18.20;99.90;;;;;;4173114;28;20698;-74
2023/05/14 09:02:48;;;;;;;4.73;3.37;;;18.30;99.90;;;;;;4173568;28;20201;-75
2023/05/14 09:04:54;;;;;;;3.93;3.20;;;18.40;99.90;;;;;;4172692;28;20206;-72
2023/05/14 09:06:56;;;;;;;5.30;3.37;;;18.50;99.90;;;;;;4173851;28;20223;-75
2023/05/14 09:08:58;;;;;;;3.80;3.40;;;18.60;99.90;;;;;;4171871;28;20267;-76
2023/05/14 09:10:59;;;;;;;4.37;3.70;;;18.80;99.90;;;;;;4176186;28;20735;-74
2023/05/14 09:13:01;;;;;;;3.40;3.00;;;18.90;99.90;;;;;;4173942;28;20268;-75
2023/05/14 09:15:04;;;;;;;5.77;3.83;;;19.00;99.90;;;;;;4169341;28;20284;-79
2023/05/14 09:17:08;;;;;;;5.93;4.23;;;19.10;99.90;;;;;;4169246;28;20257;-79
2023/05/14 09:19:10;;;;;;;4.87;3.50;;;19.20;99.90;;;;;;4177633;28;20210;-77
2023/05/14 09:21:13;;;;;;;4.50;3.30;;;19.30;99.90;;;;;;4174215;28;20210;-78
2023/05/14 09:23:15;;;;;;;4.30;3.33;;;19.30;99.90;;;;;;4172952;28;20282;-77
2023/05/14 09:25:17;;;;;;;3.93;3.53;;;19.40;99.90;;;;;;4173575;28;20867;-77
2023/05/14 09:27:20;;;;;;;4.47;3.40;;;19.40;99.90;;;;;;4177359;28;20230;-78
2023/05/14 09:29:23;;;;;;;5.73;4.03;;;19.50;99.90;;;;;;4178992;28;20233;-77
2023/05/14 09:31:25;;;;;;;5.00;3.73;;;19.60;99.90;;;;;;4170609;28;20199;-80
2023/05/14 09:33:29;;;;;;;5.50;3.67;;;19.70;99.90;;;;;;4172497;28;20268;-78
2023/05/14 09:35:36;;;;;;;4.60;3.27;;;19.70;99.90;;;;;;4173626;28;20624;-79
2023/05/14 09:37:42;;;;;;;4.07;3.13;;;19.80;99.90;;;;;;4173738;28;20226;-80
2023/05/14 09:39:44;;;;;;;4.50;2.97;;;19.80;99.90;;;;;;4170876;28;20286;-79
2023/05/14 09:41:46;;;;;;;4.03;2.83;;;19.80;99.90;;;;;;4171649;28;20207;-79
2023/05/14 09:43:48;;;;;;;4.80;2.87;;;19.90;99.90;;;;;;4168209;28;20211;-78
2023/05/14 09:45:52;;;;;;;4.40;3.23;;;20.00;99.90;;;;;;4171280;28;20206;-78
2023/05/14 09:47:54;;;;;;;4.47;3.03;;;20.00;99.90;;;;;;4172308;28;20221;-79
2023/05/14 09:49:58;;;;;;;3.20;2.90;;;20.10;99.90;;;;;;4169218;28;20778;-79
2023/05/14 09:52:02;;;;;;;3.50;2.73;;;20.20;99.90;;;;;;4180331;28;20204;-78
2023/05/14 09:54:05;;;;;;;2.97;2.67;;;20.20;99.90;;;;;;4174425;28;20206;-77
2023/05/14 09:56:07;;;;;;;4.87;3.27;;;20.30;99.90;;;;;;4170118;28;20241;-78
2023/05/14 09:58:09;;;;;;;3.70;2.90;;;20.50;99.90;;;;;;4176350;28;20215;-79
2023/05/14 10:00:12;;;;;;;4.33;2.80;;;20.50;99.90;;;;;;4170709;28;20828;-77
2023/05/14 10:02:22;;;;;;;3.80;2.97;;;20.60;99.90;;;;;;4171998;28;20298;-77
2023/05/14 10:04:24;;;;;;;4.20;3.00;;;20.70;99.90;;;;;;4172199;28;20215;-78
2023/05/14 10:06:30;;;;;;;4.20;2.70;;;20.80;99.90;;;;;;4176640;28;20348;-77
2023/05/14 10:08:35;;;;;;;6.37;3.13;;;20.90;99.90;;;;;;4176541;28;20202;-77
2023/05/14 10:10:37;;;;;;;3.73;2.93;;;21.10;99.90;;;;;;4175710;28;20207;-79
2023/05/14 10:12:40;;;;;;;4.20;3.10;;;21.20;99.90;;;;;;4171107;28;20279;-78
2023/05/14 10:14:48;;;;;;;5.90;3.17;;;21.30;99.90;;;;;;4171018;28;20739;-77
2023/05/14 10:16:51;;;;;;;3.63;2.83;;;21.50;91.90;;;;;;4176148;28;20281;-78
2023/05/14 10:19:00;;;;;;;5.00;2.90;;;21.50;93.90;;;;;;4174704;28;20263;-77
2023/05/14 10:21:05;;;;;;;4.20;2.70;;;21.70;92.00;;;;;;4171468;28;20197;-77
2023/05/14 10:23:09;;;;;;;3.73;2.77;;;21.80;95.90;;;;;;4174925;28;20222;-78
2023/05/14 10:25:11;;;;;;;4.43;3.03;;;21.90;92.10;;;;;;4176057;28;20262;-76
2023/05/14 10:27:14;;;;;;;5.00;2.90;;;22.10;73.50;;;;;;4172562;28;20847;-77
2023/05/14 10:29:16;;;;;;;4.17;3.10;;;22.20;62.60;;;;;;4175538;28;20552;-77
2023/05/14 10:31:18;;;;;;;3.70;2.80;;;22.40;58.70;;;;;;4172633;28;20293;-79
2023/05/14 10:33:20;;;;;;;3.60;2.90;;;22.60;59.70;;;;;;4177183;28;20229;-78
2023/05/14 10:35:24;;;;;;;3.40;2.47;;;22.70;57.50;;;;;;4170783;28;20845;-78
2023/05/14 10:37:30;;;;;;;3.03;2.53;;;22.90;54.20;;;;;;4171689;28;20226;-79
2023/05/14 10:39:47;;;;;;;3.60;2.90;;;23.00;53.00;;;;;;4173765;28;20203;-79